sensor_id;sensor_type;location;lat;lon;timestamp;P1;durP1;ratioP1;P2;durP2;ratioP2
11052;SDS011;55230;42.602;23.470;2024-02-23T00:01:36;10.20;;;6.95;;
11052;SDS011;55230;42.602;23.470;2024-02-23T00:04:02;8.07;;;5.35;;
11052;SDS011;55230;42.602;23.470;2024-02-23T00:06:28;5.78;;;5.15;;
11052;SDS011;55230;42.602;23.470;2024-02-23T00:08:53;8.95;;;6.35;;
11052;SDS011;55230;42.602;23.470;2024-02-23T00:11:20;18.38;;;8.95;;
11052;SDS011;55230;42.602;23.470;2024-02-23T00:13:46;28.45;;;14.55;;
11052;SDS011;55230;42.602;23.470;2024-02-23T00:16:11;18.20;;;10.18;;
11052;SDS011;55230;42.602;23.470;2024-02-23T00:18:36;20.05;;;10.57;;
11052;SDS011;55230;42.602;23.470;2024-02-23T00:21:02;13.50;;;7.47;;
11052;SDS011;55230;42.602;23.470;2024-02-23T00:23:28;14.52;;;8.90;;
11052;SDS011;55230;42.602;23.470;2024-02-23T00:25:53;11.23;;;7.40;;
11052;SDS011;55230;42.602;23.470;2024-02-23T00:28:19;14.15;;;7.55;;
11052;SDS011;55230;42.602;23.470;2024-02-23T00:30:44;13.55;;;8.20;;
11052;SDS011;55230;42.602;23.470;2024-02-23T00:33:10;9.85;;;7.65;;
11052;SDS011;55230;42.602;23.470;2024-02-23T00:35:35;13.10;;;7.90;;
11052;SDS011;55230;42.602;23.470;2024-02-23T00:38:00;8.18;;;5.85;;
11052;SDS011;55230;42.602;23.470;2024-02-23T00:40:26;24.52;;;10.52;;
11052;SDS011;55230;42.602;23.470;2024-02-23T00:42:51;24.35;;;12.45;;
11052;SDS011;55230;42.602;23.470;2024-02-23T00:45:17;18.27;;;10.32;;
11052;SDS011;55230;42.602;23.470;2024-02-23T00:47:43;16.48;;;8.85;;
11052;SDS011;55230;42.602;23.470;2024-02-23T00:50:08;16.90;;;9.18;;
11052;SDS011;55230;42.602;23.470;2024-02-23T00:52:35;16.67;;;10.00;;
11052;SDS011;55230;42.602;23.470;2024-02-23T00:55:00;15.65;;;9.88;;
11052;SDS011;55230;42.602;23.470;2024-02-23T00:57:26;19.38;;;11.27;;
11052;SDS011;55230;42.602;23.470;2024-02-23T00:59:55;14.60;;;8.13;;
11052;SDS011;55230;42.602;23.470;2024-02-23T01:02:22;11.40;;;7.60;;
11052;SDS011;55230;42.602;23.470;2024-02-23T01:04:48;13.55;;;7.82;;
11052;SDS011;55230;42.602;23.470;2024-02-23T01:07:13;9.07;;;6.40;;
11052;SDS011;55230;42.602;23.470;2024-02-23T01:09:39;9.27;;;6.07;;
11052;SDS011;55230;42.602;23.470;2024-02-23T01:12:04;9.55;;;6.00;;
11052;SDS011;55230;42.602;23.470;2024-02-23T01:14:30;9.88;;;6.38;;
11052;SDS011;55230;42.602;23.470;2024-02-23T01:16:55;7.57;;;5.53;;
11052;SDS011;55230;42.602;23.470;2024-02-23T01:19:21;10.20;;;6.68;;
11052;SDS011;55230;42.602;23.470;2024-02-23T01:21:46;10.88;;;7.45;;
11052;SDS011;55230;42.602;23.470;2024-02-23T01:24:12;9.43;;;6.00;;
11052;SDS011;55230;42.602;23.470;2024-02-23T01:26:37;7.30;;;5.30;;
11052;SDS011;55230;42.602;23.470;2024-02-23T01:29:02;8.82;;;5.32;;
11052;SDS011;55230;42.602;23.470;2024-02-23T01:31:28;9.55;;;7.10;;
11052;SDS011;55230;42.602;23.470;2024-02-23T01:33:54;7.78;;;5.80;;
11052;SDS011;55230;42.602;23.470;2024-02-23T01:36:19;7.88;;;5.20;;
11052;SDS011;55230;42.602;23.470;2024-02-23T01:38:44;11.40;;;7.90;;
11052;SDS011;55230;42.602;23.470;2024-02-23T01:41:10;8.30;;;6.25;;
11052;SDS011;55230;42.602;23.470;2024-02-23T01:43:37;12.50;;;7.00;;
11052;SDS011;55230;42.602;23.470;2024-02-23T01:46:02;8.55;;;5.88;;
11052;SDS011;55230;42.602;23.470;2024-02-23T01:48:29;8.05;;;5.38;;
11052;SDS011;55230;42.602;23.470;2024-02-23T01:50:55;7.90;;;5.15;;
11052;SDS011;55230;42.602;23.470;2024-02-23T01:53:21;8.02;;;5.85;;
11052;SDS011;55230;42.602;23.470;2024-02-23T01:55:47;7.50;;;4.95;;
11052;SDS011;55230;42.602;23.470;2024-02-23T01:58:14;6.82;;;4.72;;
11052;SDS011;55230;42.602;23.470;2024-02-23T02:00:40;5.95;;;4.75;;
11052;SDS011;55230;42.602;23.470;2024-02-23T02:03:05;5.47;;;4.82;;
11052;SDS011;55230;42.602;23.470;2024-02-23T02:05:30;6.05;;;3.88;;
11052;SDS011;55230;42.602;23.470;2024-02-23T02:07:56;7.05;;;5.03;;
11052;SDS011;55230;42.602;23.470;2024-02-23T02:10:25;5.00;;;4.43;;
11052;SDS011;55230;42.602;23.470;2024-02-23T02:12:51;5.80;;;4.28;;
11052;SDS011;55230;42.602;23.470;2024-02-23T02:15:17;5.97;;;4.47;;
11052;SDS011;55230;42.602;23.470;2024-02-23T02:17:42;6.10;;;4.30;;
11052;SDS011;55230;42.602;23.470;2024-02-23T02:20:11;5.55;;;4.22;;
11052;SDS011;55230;42.602;23.470;2024-02-23T02:22:38;6.38;;;4.47;;
11052;SDS011;55230;42.602;23.470;2024-02-23T02:25:03;5.57;;;4.30;;
11052;SDS011;55230;42.602;23.470;2024-02-23T02:27:29;5.85;;;3.83;;
11052;SDS011;55230;42.602;23.470;2024-02-23T02:29:54;7.00;;;4.47;;
11052;SDS011;55230;42.602;23.470;2024-02-23T02:32:20;6.85;;;4.55;;
11052;SDS011;55230;42.602;23.470;2024-02-23T02:34:45;5.55;;;3.85;;
11052;SDS011;55230;42.602;23.470;2024-02-23T02:37:11;7.65;;;4.63;;
11052;SDS011;55230;42.602;23.470;2024-02-23T02:39:36;4.50;;;4.00;;
11052;SDS011;55230;42.602;23.470;2024-02-23T02:42:01;4.45;;;3.70;;
11052;SDS011;55230;42.602;23.470;2024-02-23T02:44:27;5.60;;;4.07;;
11052;SDS011;55230;42.602;23.470;2024-02-23T02:46:55;12.02;;;7.82;;
11052;SDS011;55230;42.602;23.470;2024-02-23T02:49:24;8.48;;;6.38;;
11052;SDS011;55230;42.602;23.470;2024-02-23T02:51:49;6.50;;;4.43;;
11052;SDS011;55230;42.602;23.470;2024-02-23T02:54:15;4.38;;;3.88;;
11052;SDS011;55230;42.602;23.470;2024-02-23T02:56:44;6.60;;;4.05;;
11052;SDS011;55230;42.602;23.470;2024-02-23T02:59:11;5.50;;;4.22;;
11052;SDS011;55230;42.602;23.470;2024-02-23T03:01:37;6.07;;;4.22;;
11052;SDS011;55230;42.602;23.470;2024-02-23T03:04:03;5.18;;;4.20;;
11052;SDS011;55230;42.602;23.470;2024-02-23T03:06:28;4.95;;;3.63;;
11052;SDS011;55230;42.602;23.470;2024-02-23T03:08:54;5.65;;;4.15;;
11052;SDS011;55230;42.602;23.470;2024-02-23T03:11:19;5.85;;;4.30;;
11052;SDS011;55230;42.602;23.470;2024-02-23T03:13:44;4.57;;;3.90;;
11052;SDS011;55230;42.602;23.470;2024-02-23T03:16:16;8.88;;;4.10;;
11052;SDS011;55230;42.602;23.470;2024-02-23T03:18:42;3.90;;;3.42;;
11052;SDS011;55230;42.602;23.470;2024-02-23T03:21:08;4.43;;;3.88;;
11052;SDS011;55230;42.602;23.470;2024-02-23T03:23:34;5.40;;;3.63;;
11052;SDS011;55230;42.602;23.470;2024-02-23T03:26:02;4.88;;;3.25;;
11052;SDS011;55230;42.602;23.470;2024-02-23T03:28:28;4.13;;;3.17;;
11052;SDS011;55230;42.602;23.470;2024-02-23T03:30:53;4.45;;;3.67;;
11052;SDS011;55230;42.602;23.470;2024-02-23T03:33:19;6.70;;;3.97;;
11052;SDS011;55230;42.602;23.470;2024-02-23T03:35:44;7.03;;;5.00;;
11052;SDS011;55230;42.602;23.470;2024-02-23T03:38:10;8.10;;;5.18;;
11052;SDS011;55230;42.602;23.470;2024-02-23T03:40:35;9.68;;;5.53;;
11052;SDS011;55230;42.602;23.470;2024-02-23T03:43:01;10.95;;;5.07;;
11052;SDS011;55230;42.602;23.470;2024-02-23T03:45:27;8.15;;;5.70;;
11052;SDS011;55230;42.602;23.470;2024-02-23T03:47:53;7.60;;;4.60;;
11052;SDS011;55230;42.602;23.470;2024-02-23T03:50:18;7.82;;;5.60;;
11052;SDS011;55230;42.602;23.470;2024-02-23T03:52:44;6.85;;;5.30;;
11052;SDS011;55230;42.602;23.470;2024-02-23T03:55:09;11.63;;;7.40;;
11052;SDS011;55230;42.602;23.470;2024-02-23T03:57:35;7.18;;;4.95;;
11052;SDS011;55230;42.602;23.470;2024-02-23T04:00:00;7.72;;;4.70;;
11052;SDS011;55230;42.602;23.470;2024-02-23T04:02:25;6.40;;;4.57;;
11052;SDS011;55230;42.602;23.470;2024-02-23T04:04:51;6.72;;;5.05;;
11052;SDS011;55230;42.602;23.470;2024-02-23T04:07:16;16.45;;;8.13;;
11052;SDS011;55230;42.602;23.470;2024-02-23T04:09:42;17.55;;;8.85;;
11052;SDS011;55230;42.602;23.470;2024-02-23T04:12:07;28.85;;;13.23;;
11052;SDS011;55230;42.602;23.470;2024-02-23T04:14:33;14.93;;;8.45;;
11052;SDS011;55230;42.602;23.470;2024-02-23T04:17:02;11.20;;;6.65;;
11052;SDS011;55230;42.602;23.470;2024-02-23T04:19:28;10.50;;;6.40;;
11052;SDS011;55230;42.602;23.470;2024-02-23T04:21:54;9.65;;;6.68;;
11052;SDS011;55230;42.602;23.470;2024-02-23T04:24:20;7.57;;;5.45;;
11052;SDS011;55230;42.602;23.470;2024-02-23T04:26:45;8.20;;;6.03;;
11052;SDS011;55230;42.602;23.470;2024-02-23T04:29:10;7.07;;;5.50;;
11052;SDS011;55230;42.602;23.470;2024-02-23T04:31:36;9.23;;;5.93;;
11052;SDS011;55230;42.602;23.470;2024-02-23T04:34:02;9.95;;;6.85;;
11052;SDS011;55230;42.602;23.470;2024-02-23T04:36:28;8.50;;;6.13;;
11052;SDS011;55230;42.602;23.470;2024-02-23T04:38:54;9.82;;;6.43;;
11052;SDS011;55230;42.602;23.470;2024-02-23T04:41:19;9.82;;;6.07;;
11052;SDS011;55230;42.602;23.470;2024-02-23T04:43:48;8.45;;;6.97;;
11052;SDS011;55230;42.602;23.470;2024-02-23T04:46:14;8.10;;;5.38;;
11052;SDS011;55230;42.602;23.470;2024-02-23T04:48:40;12.88;;;7.75;;
11052;SDS011;55230;42.602;23.470;2024-02-23T04:51:06;7.53;;;4.95;;
11052;SDS011;55230;42.602;23.470;2024-02-23T04:53:38;5.55;;;5.00;;
11052;SDS011;55230;42.602;23.470;2024-02-23T04:56:04;8.68;;;5.75;;
11052;SDS011;55230;42.602;23.470;2024-02-23T04:58:29;9.05;;;5.57;;
11052;SDS011;55230;42.602;23.470;2024-02-23T05:00:55;8.05;;;5.18;;
11052;SDS011;55230;42.602;23.470;2024-02-23T05:03:20;12.02;;;7.28;;
11052;SDS011;55230;42.602;23.470;2024-02-23T05:05:46;11.77;;;8.10;;
11052;SDS011;55230;42.602;23.470;2024-02-23T05:08:11;23.88;;;12.93;;
11052;SDS011;55230;42.602;23.470;2024-02-23T05:10:37;16.60;;;9.10;;
11052;SDS011;55230;42.602;23.470;2024-02-23T05:13:02;9.95;;;7.15;;
11052;SDS011;55230;42.602;23.470;2024-02-23T05:15:27;11.30;;;6.93;;
11052;SDS011;55230;42.602;23.470;2024-02-23T05:17:53;8.90;;;5.85;;
11052;SDS011;55230;42.602;23.470;2024-02-23T05:20:18;9.90;;;6.30;;
11052;SDS011;55230;42.602;23.470;2024-02-23T05:22:44;10.98;;;6.03;;
11052;SDS011;55230;42.602;23.470;2024-02-23T05:25:09;8.80;;;6.55;;
11052;SDS011;55230;42.602;23.470;2024-02-23T05:27:35;10.00;;;6.15;;
11052;SDS011;55230;42.602;23.470;2024-02-23T05:30:00;15.63;;;9.48;;
11052;SDS011;55230;42.602;23.470;2024-02-23T05:32:26;9.98;;;6.13;;
11052;SDS011;55230;42.602;23.470;2024-02-23T05:34:51;9.20;;;5.72;;
11052;SDS011;55230;42.602;23.470;2024-02-23T05:37:19;27.02;;;12.98;;
11052;SDS011;55230;42.602;23.470;2024-02-23T05:39:44;16.95;;;11.13;;
11052;SDS011;55230;42.602;23.470;2024-02-23T05:42:11;13.50;;;8.20;;
11052;SDS011;55230;42.602;23.470;2024-02-23T05:44:37;24.20;;;13.13;;
11052;SDS011;55230;42.602;23.470;2024-02-23T05:47:02;17.40;;;10.18;;
11052;SDS011;55230;42.602;23.470;2024-02-23T05:49:28;14.98;;;9.27;;
11052;SDS011;55230;42.602;23.470;2024-02-23T05:51:53;12.90;;;8.85;;
11052;SDS011;55230;42.602;23.470;2024-02-23T05:54:20;12.57;;;9.02;;
11052;SDS011;55230;42.602;23.470;2024-02-23T05:56:45;11.75;;;8.32;;
11052;SDS011;55230;42.602;23.470;2024-02-23T05:59:11;7.45;;;5.10;;
11052;SDS011;55230;42.602;23.470;2024-02-23T06:01:36;11.32;;;6.55;;
11052;SDS011;55230;42.602;23.470;2024-02-23T06:04:02;6.15;;;4.70;;
11052;SDS011;55230;42.602;23.470;2024-02-23T06:06:27;14.93;;;9.65;;
11052;SDS011;55230;42.602;23.470;2024-02-23T06:08:53;28.02;;;11.70;;
11052;SDS011;55230;42.602;23.470;2024-02-23T06:11:20;19.42;;;10.50;;
11052;SDS011;55230;42.602;23.470;2024-02-23T06:13:45;7.55;;;5.38;;
11052;SDS011;55230;42.602;23.470;2024-02-23T06:16:11;6.63;;;5.00;;
11052;SDS011;55230;42.602;23.470;2024-02-23T06:18:37;9.05;;;4.75;;
11052;SDS011;55230;42.602;23.470;2024-02-23T06:21:15;6.65;;;4.50;;
11052;SDS011;55230;42.602;23.470;2024-02-23T06:23:42;7.30;;;5.40;;
11052;SDS011;55230;42.602;23.470;2024-02-23T06:26:08;5.55;;;4.82;;
11052;SDS011;55230;42.602;23.470;2024-02-23T06:28:33;7.00;;;5.50;;
11052;SDS011;55230;42.602;23.470;2024-02-23T06:30:59;6.85;;;5.45;;
11052;SDS011;55230;42.602;23.470;2024-02-23T06:33:24;5.82;;;5.13;;
11052;SDS011;55230;42.602;23.470;2024-02-23T06:35:51;6.57;;;5.68;;
11052;SDS011;55230;42.602;23.470;2024-02-23T06:38:17;5.47;;;4.65;;
11052;SDS011;55230;42.602;23.470;2024-02-23T06:40:43;6.50;;;4.82;;
11052;SDS011;55230;42.602;23.470;2024-02-23T06:43:09;13.90;;;8.40;;
11052;SDS011;55230;42.602;23.470;2024-02-23T06:45:35;9.82;;;6.10;;
11052;SDS011;55230;42.602;23.470;2024-02-23T06:48:00;13.15;;;6.72;;
11052;SDS011;55230;42.602;23.470;2024-02-23T06:50:26;8.18;;;5.18;;
11052;SDS011;55230;42.602;23.470;2024-02-23T06:52:51;8.95;;;4.80;;
11052;SDS011;55230;42.602;23.470;2024-02-23T06:55:17;6.80;;;4.78;;
11052;SDS011;55230;42.602;23.470;2024-02-23T06:57:42;7.35;;;5.35;;
11052;SDS011;55230;42.602;23.470;2024-02-23T07:00:08;7.10;;;5.40;;
11052;SDS011;55230;42.602;23.470;2024-02-23T07:02:34;11.13;;;6.78;;
11052;SDS011;55230;42.602;23.470;2024-02-23T07:05:02;10.88;;;7.07;;
11052;SDS011;55230;42.602;23.470;2024-02-23T07:07:29;11.63;;;7.22;;
11052;SDS011;55230;42.602;23.470;2024-02-23T07:09:57;10.90;;;7.70;;
11052;SDS011;55230;42.602;23.470;2024-02-23T07:12:28;20.35;;;8.88;;
11052;SDS011;55230;42.602;23.470;2024-02-23T07:15:00;12.60;;;8.07;;
11052;SDS011;55230;42.602;23.470;2024-02-23T07:17:28;11.18;;;8.02;;
11052;SDS011;55230;42.602;23.470;2024-02-23T07:19:57;11.48;;;7.68;;
11052;SDS011;55230;42.602;23.470;2024-02-23T07:22:30;11.52;;;8.00;;
11052;SDS011;55230;42.602;23.470;2024-02-23T07:25:01;16.42;;;9.82;;
11052;SDS011;55230;42.602;23.470;2024-02-23T07:27:29;13.50;;;8.20;;
11052;SDS011;55230;42.602;23.470;2024-02-23T07:29:56;13.20;;;8.15;;
11052;SDS011;55230;42.602;23.470;2024-02-23T07:32:22;14.07;;;9.43;;
11052;SDS011;55230;42.602;23.470;2024-02-23T07:34:47;14.68;;;9.25;;
11052;SDS011;55230;42.602;23.470;2024-02-23T07:37:14;13.63;;;8.15;;
11052;SDS011;55230;42.602;23.470;2024-02-23T07:39:40;14.70;;;9.77;;
11052;SDS011;55230;42.602;23.470;2024-02-23T07:42:05;19.42;;;9.80;;
11052;SDS011;55230;42.602;23.470;2024-02-23T07:44:31;16.02;;;9.15;;
11052;SDS011;55230;42.602;23.470;2024-02-23T07:46:57;15.43;;;8.98;;
11052;SDS011;55230;42.602;23.470;2024-02-23T07:49:25;15.98;;;9.52;;
11052;SDS011;55230;42.602;23.470;2024-02-23T07:51:52;12.70;;;9.77;;
11052;SDS011;55230;42.602;23.470;2024-02-23T07:54:17;11.98;;;7.65;;
11052;SDS011;55230;42.602;23.470;2024-02-23T07:56:43;13.55;;;8.40;;
11052;SDS011;55230;42.602;23.470;2024-02-23T07:59:08;16.45;;;9.18;;
11052;SDS011;55230;42.602;23.470;2024-02-23T08:01:34;12.32;;;8.25;;
11052;SDS011;55230;42.602;23.470;2024-02-23T08:03:59;12.73;;;8.30;;
11052;SDS011;55230;42.602;23.470;2024-02-23T08:06:25;13.18;;;8.63;;
11052;SDS011;55230;42.602;23.470;2024-02-23T08:08:51;13.55;;;9.45;;
11052;SDS011;55230;42.602;23.470;2024-02-23T08:11:18;14.07;;;10.30;;
11052;SDS011;55230;42.602;23.470;2024-02-23T08:13:44;14.27;;;9.18;;
11052;SDS011;55230;42.602;23.470;2024-02-23T08:16:10;13.40;;;9.35;;
11052;SDS011;55230;42.602;23.470;2024-02-23T08:18:35;10.27;;;7.95;;
11052;SDS011;55230;42.602;23.470;2024-02-23T08:21:01;17.02;;;9.77;;
11052;SDS011;55230;42.602;23.470;2024-02-23T08:23:30;12.85;;;9.02;;
11052;SDS011;55230;42.602;23.470;2024-02-23T08:25:56;12.98;;;9.05;;
11052;SDS011;55230;42.602;23.470;2024-02-23T08:28:23;11.57;;;8.88;;
11052;SDS011;55230;42.602;23.470;2024-02-23T08:30:49;10.23;;;7.93;;
11052;SDS011;55230;42.602;23.470;2024-02-23T08:33:18;8.60;;;6.75;;
11052;SDS011;55230;42.602;23.470;2024-02-23T08:35:43;10.93;;;8.30;;
11052;SDS011;55230;42.602;23.470;2024-02-23T08:38:13;12.73;;;7.25;;
11052;SDS011;55230;42.602;23.470;2024-02-23T08:40:39;11.15;;;7.97;;
11052;SDS011;55230;42.602;23.470;2024-02-23T08:43:04;10.32;;;7.60;;
11052;SDS011;55230;42.602;23.470;2024-02-23T08:45:32;9.65;;;6.97;;
11052;SDS011;55230;42.602;23.470;2024-02-23T08:48:00;9.13;;;7.07;;
11052;SDS011;55230;42.602;23.470;2024-02-23T08:50:25;9.68;;;6.57;;
11052;SDS011;55230;42.602;23.470;2024-02-23T08:52:51;9.63;;;6.82;;
11052;SDS011;55230;42.602;23.470;2024-02-23T08:55:22;8.55;;;6.68;;
11052;SDS011;55230;42.602;23.470;2024-02-23T08:57:48;8.65;;;5.88;;
11052;SDS011;55230;42.602;23.470;2024-02-23T09:00:14;8.80;;;6.13;;
11052;SDS011;55230;42.602;23.470;2024-02-23T09:02:40;7.05;;;5.70;;
11052;SDS011;55230;42.602;23.470;2024-02-23T09:05:07;9.82;;;6.22;;
11052;SDS011;55230;42.602;23.470;2024-02-23T09:07:53;9.07;;;5.10;;
11052;SDS011;55230;42.602;23.470;2024-02-23T09:10:21;2.72;;;2.50;;
11052;SDS011;55230;42.602;23.470;2024-02-23T09:12:51;1.58;;;1.23;;
11052;SDS011;55230;42.602;23.470;2024-02-23T09:15:20;7.85;;;4.32;;
11052;SDS011;55230;42.602;23.470;2024-02-23T09:17:47;4.18;;;3.58;;
11052;SDS011;55230;42.602;23.470;2024-02-23T09:20:16;3.17;;;2.97;;
11052;SDS011;55230;42.602;23.470;2024-02-23T09:22:41;2.50;;;2.30;;
11052;SDS011;55230;42.602;23.470;2024-02-23T09:25:07;4.38;;;3.92;;
11052;SDS011;55230;42.602;23.470;2024-02-23T09:27:33;2.20;;;1.65;;
11052;SDS011;55230;42.602;23.470;2024-02-23T09:30:05;1.67;;;1.58;;
11052;SDS011;55230;42.602;23.470;2024-02-23T09:32:31;5.40;;;2.47;;
11052;SDS011;55230;42.602;23.470;2024-02-23T09:34:56;3.90;;;3.60;;
11052;SDS011;55230;42.602;23.470;2024-02-23T09:37:22;1.27;;;1.23;;
11052;SDS011;55230;42.602;23.470;2024-02-23T09:39:47;1.20;;;1.10;;
11052;SDS011;55230;42.602;23.470;2024-02-23T09:42:12;0.82;;;0.82;;
11052;SDS011;55230;42.602;23.470;2024-02-23T09:44:39;3.22;;;0.80;;
11052;SDS011;55230;42.602;23.470;2024-02-23T09:47:06;0.70;;;0.70;;
11052;SDS011;55230;42.602;23.470;2024-02-23T09:49:38;0.93;;;0.93;;
11052;SDS011;55230;42.602;23.470;2024-02-23T09:52:08;2.15;;;1.02;;
11052;SDS011;55230;42.602;23.470;2024-02-23T09:57:07;0.95;;;0.95;;
11052;SDS011;55230;42.602;23.470;2024-02-23T09:59:34;0.63;;;0.63;;
11052;SDS011;55230;42.602;23.470;2024-02-23T10:02:00;2.20;;;0.93;;
11052;SDS011;55230;42.602;23.470;2024-02-23T10:04:26;0.88;;;0.80;;
11052;SDS011;55230;42.602;23.470;2024-02-23T10:06:54;2.90;;;1.50;;
11052;SDS011;55230;42.602;23.470;2024-02-23T10:09:20;2.35;;;0.98;;
11052;SDS011;55230;42.602;23.470;2024-02-23T10:11:51;1.08;;;1.00;;
11052;SDS011;55230;42.602;23.470;2024-02-23T10:14:17;1.42;;;1.33;;
11052;SDS011;55230;42.602;23.470;2024-02-23T10:16:43;1.25;;;1.15;;
11052;SDS011;55230;42.602;23.470;2024-02-23T10:19:08;1.48;;;1.20;;
11052;SDS011;55230;42.602;23.470;2024-02-23T10:21:33;0.90;;;0.90;;
11052;SDS011;55230;42.602;23.470;2024-02-23T10:23:59;1.65;;;1.13;;
11052;SDS011;55230;42.602;23.470;2024-02-23T10:26:26;1.45;;;1.27;;
11052;SDS011;55230;42.602;23.470;2024-02-23T10:28:52;1.33;;;1.23;;
11052;SDS011;55230;42.602;23.470;2024-02-23T10:31:18;1.98;;;1.77;;
11052;SDS011;55230;42.602;23.470;2024-02-23T10:33:47;8.38;;;5.25;;
11052;SDS011;55230;42.602;23.470;2024-02-23T10:36:15;1.85;;;1.75;;
11052;SDS011;55230;42.602;23.470;2024-02-23T10:38:42;2.28;;;1.80;;
11052;SDS011;55230;42.602;23.470;2024-02-23T10:41:12;1.77;;;1.67;;
11052;SDS011;55230;42.602;23.470;2024-02-23T10:43:45;2.40;;;1.60;;
11052;SDS011;55230;42.602;23.470;2024-02-23T10:46:12;1.42;;;1.33;;
11052;SDS011;55230;42.602;23.470;2024-02-23T10:48:42;10.23;;;1.33;;
11052;SDS011;55230;42.602;23.470;2024-02-23T10:51:09;1.45;;;1.35;;
11052;SDS011;55230;42.602;23.470;2024-02-23T10:53:37;2.90;;;1.02;;
11052;SDS011;55230;42.602;23.470;2024-02-23T10:56:05;1.40;;;1.05;;
11052;SDS011;55230;42.602;23.470;2024-02-23T10:58:32;1.88;;;1.00;;
11052;SDS011;55230;42.602;23.470;2024-02-23T11:01:04;1.77;;;1.55;;
11052;SDS011;55230;42.602;23.470;2024-02-23T11:03:34;1.38;;;1.27;;
11052;SDS011;55230;42.602;23.470;2024-02-23T11:06:02;1.63;;;1.50;;
11052;SDS011;55230;42.602;23.470;2024-02-23T11:08:32;0.73;;;0.73;;
11052;SDS011;55230;42.602;23.470;2024-02-23T11:10:58;1.52;;;1.33;;
11052;SDS011;55230;42.602;23.470;2024-02-23T11:13:39;5.85;;;3.90;;
11052;SDS011;55230;42.602;23.470;2024-02-23T11:16:05;4.78;;;1.30;;
11052;SDS011;55230;42.602;23.470;2024-02-23T11:18:32;1.88;;;1.33;;
11052;SDS011;55230;42.602;23.470;2024-02-23T11:21:00;0.88;;;0.88;;
11052;SDS011;55230;42.602;23.470;2024-02-23T11:23:38;0.93;;;0.93;;
11052;SDS011;55230;42.602;23.470;2024-02-23T11:26:10;4.05;;;2.33;;
11052;SDS011;55230;42.602;23.470;2024-02-23T11:31:12;1.77;;;1.25;;
11052;SDS011;55230;42.602;23.470;2024-02-23T11:33:40;1.35;;;1.20;;
11052;SDS011;55230;42.602;23.470;2024-02-23T11:36:12;3.58;;;2.05;;
11052;SDS011;55230;42.602;23.470;2024-02-23T11:38:38;1.60;;;1.50;;
11052;SDS011;55230;42.602;23.470;2024-02-23T11:41:04;1.77;;;1.45;;
11052;SDS011;55230;42.602;23.470;2024-02-23T11:43:29;3.42;;;1.85;;
11052;SDS011;55230;42.602;23.470;2024-02-23T11:45:55;2.30;;;1.92;;
11052;SDS011;55230;42.602;23.470;2024-02-23T11:48:20;4.05;;;2.38;;
11052;SDS011;55230;42.602;23.470;2024-02-23T11:50:49;14.55;;;5.63;;
11052;SDS011;55230;42.602;23.470;2024-02-23T11:53:15;2.63;;;1.73;;
11052;SDS011;55230;42.602;23.470;2024-02-23T11:55:41;3.33;;;2.03;;
11052;SDS011;55230;42.602;23.470;2024-02-23T11:58:07;5.65;;;3.92;;
11052;SDS011;55230;42.602;23.470;2024-02-23T12:00:34;1.83;;;1.58;;
11052;SDS011;55230;42.602;23.470;2024-02-23T12:03:00;4.15;;;1.58;;
11052;SDS011;55230;42.602;23.470;2024-02-23T12:05:25;1.48;;;1.38;;
11052;SDS011;55230;42.602;23.470;2024-02-23T12:07:51;0.95;;;0.85;;
11052;SDS011;55230;42.602;23.470;2024-02-23T12:10:18;1.35;;;1.20;;
11052;SDS011;55230;42.602;23.470;2024-02-23T12:12:43;1.13;;;1.00;;
11052;SDS011;55230;42.602;23.470;2024-02-23T12:15:09;1.73;;;1.42;;
11052;SDS011;55230;42.602;23.470;2024-02-23T12:17:46;1.17;;;1.08;;
11052;SDS011;55230;42.602;23.470;2024-02-23T12:22:37;1.30;;;1.20;;
11052;SDS011;55230;42.602;23.470;2024-02-23T12:25:02;0.93;;;0.93;;
11052;SDS011;55230;42.602;23.470;2024-02-23T12:27:28;1.13;;;1.02;;
11052;SDS011;55230;42.602;23.470;2024-02-23T12:29:54;1.33;;;1.23;;
11052;SDS011;55230;42.602;23.470;2024-02-23T12:32:20;2.00;;;1.30;;
11052;SDS011;55230;42.602;23.470;2024-02-23T12:34:46;1.67;;;1.20;;
11052;SDS011;55230;42.602;23.470;2024-02-23T12:37:15;2.45;;;2.25;;
11052;SDS011;55230;42.602;23.470;2024-02-23T12:39:42;1.20;;;1.10;;
11052;SDS011;55230;42.602;23.470;2024-02-23T12:42:08;1.17;;;1.08;;
11052;SDS011;55230;42.602;23.470;2024-02-23T12:44:33;2.00;;;1.52;;
11052;SDS011;55230;42.602;23.470;2024-02-23T12:46:59;2.85;;;2.00;;
11052;SDS011;55230;42.602;23.470;2024-02-23T12:49:24;1.70;;;1.60;;
11052;SDS011;55230;42.602;23.470;2024-02-23T12:51:49;1.45;;;1.02;;
11052;SDS011;55230;42.602;23.470;2024-02-23T12:54:15;2.03;;;1.60;;
11052;SDS011;55230;42.602;23.470;2024-02-23T12:56:40;2.80;;;2.60;;
11052;SDS011;55230;42.602;23.470;2024-02-23T12:59:06;1.52;;;1.42;;
11052;SDS011;55230;42.602;23.470;2024-02-23T13:01:32;1.85;;;1.35;;
11052;SDS011;55230;42.602;23.470;2024-02-23T13:04:01;1.15;;;1.05;;
11052;SDS011;55230;42.602;23.470;2024-02-23T13:06:27;1.42;;;1.33;;
11052;SDS011;55230;42.602;23.470;2024-02-23T13:08:52;1.17;;;1.17;;
11052;SDS011;55230;42.602;23.470;2024-02-23T13:11:17;3.33;;;1.98;;
11052;SDS011;55230;42.602;23.470;2024-02-23T13:13:43;1.33;;;1.15;;
11052;SDS011;55230;42.602;23.470;2024-02-23T13:16:08;1.45;;;1.35;;
11052;SDS011;55230;42.602;23.470;2024-02-23T13:18:35;1.45;;;1.35;;
11052;SDS011;55230;42.602;23.470;2024-02-23T13:21:00;2.00;;;1.45;;
11052;SDS011;55230;42.602;23.470;2024-02-23T13:23:28;1.67;;;1.58;;
11052;SDS011;55230;42.602;23.470;2024-02-23T13:25:53;1.95;;;1.85;;
11052;SDS011;55230;42.602;23.470;2024-02-23T13:28:19;1.48;;;1.38;;
11052;SDS011;55230;42.602;23.470;2024-02-23T13:30:44;1.42;;;1.33;;
11052;SDS011;55230;42.602;23.470;2024-02-23T13:33:10;1.52;;;1.42;;
11052;SDS011;55230;42.602;23.470;2024-02-23T13:35:36;1.38;;;1.27;;
11052;SDS011;55230;42.602;23.470;2024-02-23T13:38:02;1.15;;;1.15;;
11052;SDS011;55230;42.602;23.470;2024-02-23T13:40:30;3.08;;;1.83;;
11052;SDS011;55230;42.602;23.470;2024-02-23T13:42:56;1.70;;;1.60;;
11052;SDS011;55230;42.602;23.470;2024-02-23T13:45:22;1.15;;;1.15;;
11052;SDS011;55230;42.602;23.470;2024-02-23T13:47:56;1.60;;;1.50;;
11052;SDS011;55230;42.602;23.470;2024-02-23T13:50:23;3.40;;;1.40;;
11052;SDS011;55230;42.602;23.470;2024-02-23T13:52:49;1.92;;;1.83;;
11052;SDS011;55230;42.602;23.470;2024-02-23T13:55:14;2.28;;;1.38;;
11052;SDS011;55230;42.602;23.470;2024-02-23T13:57:40;1.35;;;1.25;;
11052;SDS011;55230;42.602;23.470;2024-02-23T14:00:05;1.58;;;1.48;;
11052;SDS011;55230;42.602;23.470;2024-02-23T14:02:37;1.50;;;1.33;;
11052;SDS011;55230;42.602;23.470;2024-02-23T14:05:05;2.45;;;1.10;;
11052;SDS011;55230;42.602;23.470;2024-02-23T14:07:34;1.45;;;1.35;;
11052;SDS011;55230;42.602;23.470;2024-02-23T14:10:01;1.80;;;1.48;;
11052;SDS011;55230;42.602;23.470;2024-02-23T14:12:28;1.60;;;1.50;;
11052;SDS011;55230;42.602;23.470;2024-02-23T14:14:54;1.90;;;1.80;;
11052;SDS011;55230;42.602;23.470;2024-02-23T14:17:19;2.05;;;1.95;;
11052;SDS011;55230;42.602;23.470;2024-02-23T14:19:45;2.00;;;1.65;;
11052;SDS011;55230;42.602;23.470;2024-02-23T14:22:10;1.90;;;1.80;;
11052;SDS011;55230;42.602;23.470;2024-02-23T14:24:36;1.85;;;1.75;;
11052;SDS011;55230;42.602;23.470;2024-02-23T14:27:01;1.70;;;1.60;;
11052;SDS011;55230;42.602;23.470;2024-02-23T14:29:27;1.83;;;1.58;;
11052;SDS011;55230;42.602;23.470;2024-02-23T14:31:52;1.58;;;1.33;;
11052;SDS011;55230;42.602;23.470;2024-02-23T14:34:18;1.85;;;1.75;;